SKSP/ADZ METAR and TAF weather

Enter ICAO airport designator
Station Type Date Time Source
SKSP METAR 2021/09/28 16:00 UTC NOAA

SKSP 281600Z 06012KT 9999 FEW018 SCT200 31/25 Q1012 RMK A2991


Station Type Date Time Source
SKSP Decoded METAR 2021/09/28 16:00 UTC NOAA

San Andres Isla / Sesquicentenario, Colombia (SKSP) 12-35N 081-43W 6M
Sep 28, 2021 - 12:00 PM EDT / 2021.09.28 1600 UTC
Wind: from the ENE (060 degrees) at 14 MPH (12 KT):0
Visibility: greater than 7 mile(s):0
Sky conditions: partly cloudy
Temperature: 87 F (31 C)
Heat index: 97.5 F (36.4 C):1
Dew Point: 77 F (25 C)
Relative Humidity: 70%
Pressure (altimeter): 29.88 in. Hg (1012 hPa)
ob: SKSP 281600Z 06012KT 9999 FEW018 SCT200 31/25 Q1012 RMK A2991
cycle: 16

Station Type Date Time Source
SKSP TAF 2021/09/28 12:44 UTC NOAA

TAF SKSP 281030Z 2812/2912 06012KT 9999 FEW016 SCT100 PROB40
TEMPO 2819/2823 TS FEW015CB TX32/2818Z TN26/2910Z

Example: see airport list